createdAt,value
2022-08-17T00:00:33.272Z,99501.19
2022-08-17T00:03:04.546Z,99501.44
2022-08-17T00:05:35.713Z,99499.88
2022-08-17T00:08:02.702Z,99498.19
2022-08-17T00:10:32.269Z,99497.09
2022-08-17T00:13:00.080Z,99495.53
2022-08-17T00:15:27.081Z,99508.81
2022-08-17T00:17:53.977Z,99509.59
2022-08-17T00:20:29.205Z,99512.13
2022-08-17T00:23:13.518Z,99511.88
2022-08-17T00:25:42.368Z,99512.19
2022-08-17T00:28:09.493Z,99522.13
2022-08-17T00:30:50.804Z,99503.00
2022-08-17T00:33:22.473Z,99503.53
2022-08-17T00:35:50.640Z,99503.28
2022-08-17T00:38:18.142Z,99508.34
2022-08-17T00:41:00.004Z,99510.31
2022-08-17T00:43:42.117Z,99507.22
2022-08-17T00:46:17.062Z,99508.94
2022-08-17T00:48:44.510Z,99508.94
2022-08-17T00:51:33.761Z,99508.94
2022-08-17T00:54:09.166Z,99515.06
2022-08-17T00:56:51.168Z,99520.00
2022-08-17T00:59:21.850Z,99515.28
2022-08-17T01:01:50.315Z,99517.28
2022-08-17T01:04:20.281Z,99519.19
2022-08-17T01:06:49.582Z,99523.38
2022-08-17T01:09:18.349Z,99518.72
2022-08-17T01:11:46.521Z,99516.16
2022-08-17T01:14:13.753Z,99512.34
2022-08-17T01:16:40.752Z,99517.53
2022-08-17T01:19:22.381Z,99509.81
2022-08-17T01:22:03.441Z,99526.72
2022-08-17T01:24:31.222Z,99522.06
2022-08-17T01:27:01.124Z,99520.69
2022-08-17T01:29:30.902Z,99521.50
2022-08-17T01:32:01.794Z,99527.34
2022-08-17T01:34:36.831Z,99523.81
2022-08-17T01:37:11.274Z,99518.03
2022-08-17T01:39:43.773Z,99523.88
2022-08-17T01:42:23.584Z,99523.25
2022-08-17T01:44:56.736Z,99519.41
2022-08-17T01:47:24.086Z,99514.78
2022-08-17T01:49:51.042Z,99517.53
2022-08-17T01:52:18.226Z,99521.47
2022-08-17T01:54:47.510Z,99524.19
2022-08-17T01:57:14.501Z,99521.16
2022-08-17T01:59:41.337Z,99520.84
2022-08-17T02:02:08.866Z,99521.91
2022-08-17T02:04:35.657Z,99524.53
2022-08-17T02:07:02.499Z,99522.53
2022-08-17T02:09:30.535Z,99519.47
2022-08-17T02:12:04.837Z,99527.56
2022-08-17T02:14:47.802Z,99515.38
2022-08-17T02:17:14.776Z,99522.84
2022-08-17T02:19:41.983Z,99522.03
2022-08-17T02:22:09.157Z,99530.88
2022-08-17T02:25:01.043Z,99531.97
2022-08-17T02:27:24.874Z,99533.59
2022-08-17T02:29:51.746Z,99538.00
2022-08-17T02:32:27.832Z,99533.59
2022-08-17T02:34:56.391Z,99537.53
2022-08-17T02:37:23.592Z,99545.28
2022-08-17T02:39:50.455Z,99545.22
2022-08-17T02:42:17.377Z,99539.66
2022-08-17T02:44:44.386Z,99538.63
2022-08-17T02:47:11.965Z,99543.09
2022-08-17T02:49:39.032Z,99543.59
2022-08-17T02:52:07.867Z,99554.16
2022-08-17T02:54:41.206Z,99537.03
2022-08-17T02:57:10.404Z,99539.78
2022-08-17T02:59:39.033Z,99544.19
2022-08-17T03:02:11.841Z,99543.72
2022-08-17T03:04:38.997Z,99550.91
2022-08-17T03:07:05.908Z,99550.38
2022-08-17T03:09:32.988Z,99554.47
2022-08-17T03:12:13.035Z,99550.94
2022-08-17T03:14:42.688Z,99557.59
2022-08-17T03:17:12.837Z,99556.94
2022-08-17T03:19:44.712Z,99563.38
2022-08-17T03:22:37.337Z,99561.47
2022-08-17T03:24:58.633Z,99567.53
2022-08-17T03:27:25.615Z,99569.72
2022-08-17T03:29:52.512Z,99567.53
2022-08-17T03:32:20.830Z,99553.50
2022-08-17T03:34:48.077Z,99568.38
2022-08-17T03:37:15.251Z,99576.66
2022-08-17T03:39:43.080Z,99575.81
2022-08-17T03:42:32.383Z,99583.00
2022-08-17T03:45:00.582Z,99578.06
2022-08-17T03:47:46.708Z,99582.50
2022-08-17T03:50:33.270Z,99580.56
2022-08-17T03:53:19.185Z,99588.53
2022-08-17T03:56:04.795Z,99594.63
2022-08-17T03:58:31.789Z,99588.84
2022-08-17T04:00:58.772Z,99596.78
2022-08-17T04:03:25.694Z,99592.38
2022-08-17T04:05:52.598Z,99601.16
2022-08-17T04:08:19.456Z,99598.44
2022-08-17T04:10:46.430Z,99594.28
2022-08-17T04:13:14.062Z,99603.44
2022-08-17T04:15:41.086Z,99585.47
2022-08-17T04:18:08.260Z,99596.53
2022-08-17T04:20:37.969Z,99599.03
2022-08-17T04:23:13.953Z,99605.41
2022-08-17T04:25:45.237Z,99595.16
2022-08-17T04:28:16.159Z,99595.97
2022-08-17T04:30:45.376Z,99593.81
2022-08-17T04:33:16.686Z,99600.75
2022-08-17T04:35:50.159Z,99596.31
2022-08-17T04:38:20.348Z,99597.72
2022-08-17T04:41:06.963Z,99593.56
2022-08-17T04:43:35.094Z,99593.03
2022-08-17T04:46:05.657Z,99600.16
2022-08-17T04:48:37.474Z,99599.66
2022-08-17T04:51:20.125Z,99598.31
2022-08-17T04:53:54.723Z,99602.72
2022-08-17T04:56:23.682Z,99605.22
2022-08-17T04:58:55.090Z,99602.47
2022-08-17T05:01:25.519Z,99615.72
2022-08-17T05:03:54.919Z,99607.47
2022-08-17T05:06:22.150Z,99617.13
2022-08-17T05:08:49.094Z,99618.22
2022-08-17T05:11:16.027Z,99604.41
2022-08-17T05:13:42.863Z,99619.03
2022-08-17T05:16:09.824Z,99621.28
2022-08-17T05:18:38.943Z,99607.47
2022-08-17T05:21:06.911Z,99616.63
2022-08-17T05:23:43.013Z,99627.38
2022-08-17T05:26:25.414Z,99626.03
2022-08-17T05:29:02.455Z,99636.22
2022-08-17T05:31:31.339Z,99635.66
2022-08-17T05:33:58.803Z,99637.88
2022-08-17T05:36:42.048Z,99636.22
2022-08-17T05:39:13.394Z,99632.91
2022-08-17T05:41:47.313Z,99635.97
2022-08-17T05:44:14.359Z,99638.44
2022-08-17T05:46:45.780Z,99638.44
2022-08-17T05:49:14.929Z,99637.09
2022-08-17T05:51:48.984Z,99638.72
2022-08-17T05:54:36.150Z,99646.72
2022-08-17T05:57:43.619Z,99647.00
2022-08-17T06:00:34.205Z,99651.41
2022-08-17T06:03:22.462Z,99653.66
2022-08-17T06:06:08.898Z,99654.19
2022-08-17T06:08:51.774Z,99649.22
2022-08-17T06:11:29.120Z,99655.00
2022-08-17T06:14:25.334Z,99646.72
2022-08-17T06:17:00.680Z,99654.47
2022-08-17T06:19:43.338Z,99662.72
2022-08-17T06:22:14.879Z,99658.56
2022-08-17T06:24:50.165Z,99660.50
2022-08-17T06:27:35.785Z,99660.53
2022-08-17T06:30:09.497Z,99668.25
2022-08-17T06:32:41.244Z,99669.09
2022-08-17T06:35:11.221Z,99682.09
2022-08-17T06:37:54.282Z,99680.16
2022-08-17T06:40:40.056Z,99682.91
2022-08-17T06:43:16.692Z,99687.31
2022-08-17T06:46:11.576Z,99695.31
2022-08-17T06:48:46.837Z,99693.09
2022-08-17T06:51:28.551Z,99700.22
2022-08-17T06:54:20.754Z,99708.50
2022-08-17T06:56:59.705Z,99708.00
2022-08-17T06:59:54.763Z,99714.66
2022-08-17T07:03:02.076Z,99715.41
2022-08-17T07:05:38.912Z,99712.69
2022-08-17T07:08:44.805Z,99726.75
2022-08-17T07:11:14.560Z,99729.56
2022-08-17T07:14:00.113Z,99727.88
2022-08-17T07:16:41.222Z,99736.75
2022-08-17T07:19:11.025Z,99738.13
2022-08-17T07:21:51.924Z,99733.41
2022-08-17T07:25:02.618Z,99738.38
2022-08-17T07:27:38.614Z,99744.19
2022-08-17T07:30:17.609Z,99749.44
2022-08-17T07:32:50.873Z,99758.25
2022-08-17T07:35:40.877Z,99745.00
2022-08-17T07:38:26.732Z,99745.56
2022-08-17T07:41:03.432Z,99748.06
2022-08-17T07:43:39.321Z,99753.31
2022-08-17T07:46:34.505Z,99751.91
2022-08-17T07:49:03.348Z,99761.28
2022-08-17T07:51:39.159Z,99769.88
2022-08-17T07:54:22.522Z,99767.66
2022-08-17T07:57:30.049Z,99764.88
2022-08-17T08:00:01.311Z,99763.78
2022-08-17T08:02:38.758Z,99767.91
2022-08-17T08:05:49.237Z,99772.03
2022-08-17T08:08:37.506Z,99764.88
2022-08-17T08:11:11.951Z,99768.75
2022-08-17T08:13:43.760Z,99764.59
2022-08-17T08:16:27.176Z,99772.31
2022-08-17T08:18:58.143Z,99775.34
2022-08-17T08:21:51.085Z,99777.00
2022-08-17T08:24:36.751Z,99784.50
2022-08-17T08:27:27.343Z,99791.09
2022-08-17T08:30:05.025Z,99790.84
2022-08-17T08:33:04.230Z,99788.88
2022-08-17T08:35:44.603Z,99794.66
2022-08-17T08:38:44.160Z,99805.41
2022-08-17T08:41:18.444Z,99809.84
2022-08-17T08:44:14.504Z,99815.13
2022-08-17T08:47:27.308Z,99828.94
2022-08-17T08:50:05.808Z,99822.59
2022-08-17T08:52:48.933Z,99828.44
2022-08-17T08:55:23.329Z,99840.00
2022-08-17T08:57:57.751Z,99838.06
2022-08-17T09:00:27.915Z,99836.69
2022-08-17T09:03:51.917Z,99836.69
2022-08-17T09:06:45.162Z,99840.00
2022-08-17T09:09:39.567Z,99843.88
2022-08-17T09:12:26.384Z,99834.50
2022-08-17T09:15:04.062Z,99839.44
2022-08-17T09:17:44.088Z,99837.81
2022-08-17T09:20:28.118Z,99837.25
2022-08-17T09:23:12.285Z,99836.16
2022-08-17T09:26:01.732Z,99841.16
2022-08-17T09:28:37.997Z,99844.44
2022-08-17T09:31:11.606Z,99847.22
2022-08-17T09:33:46.074Z,99840.84
2022-08-17T09:36:38.234Z,99839.47
2022-08-17T09:39:17.278Z,99846.91
2022-08-17T09:41:58.604Z,99856.56
2022-08-17T09:44:41.090Z,99842.22
2022-08-17T09:47:30.646Z,99843.28
2022-08-17T09:51:04.243Z,99852.72
2022-08-17T09:53:11.533Z,99852.13
2022-08-17T09:56:03.224Z,99853.81
2022-08-17T09:58:37.274Z,99859.03
2022-08-17T10:01:44.434Z,99851.06
2022-08-17T10:04:39.136Z,99859.91
2022-08-17T10:07:18.418Z,99863.50
2022-08-17T10:10:08.655Z,99874.53
2022-08-17T10:12:53.320Z,99857.69
2022-08-17T10:15:48.537Z,99870.38
2022-08-17T10:18:32.037Z,99862.38
2022-08-17T10:21:31.852Z,99862.09
2022-08-17T10:25:21.760Z,99861.00
2022-08-17T10:27:58.945Z,99872.31
2022-08-17T10:30:31.717Z,99864.28
2022-08-17T10:33:07.234Z,99863.97
2022-08-17T10:35:58.114Z,99863.78
2022-08-17T10:38:37.186Z,99853.22
2022-08-17T10:41:29.949Z,99856.53
2022-08-17T10:44:39.993Z,99853.50
2022-08-17T10:47:11.517Z,99852.94
2022-08-17T10:49:47.845Z,99864.22
2022-08-17T10:52:20.839Z,99866.41
2022-08-17T10:54:58.765Z,99872.19
2022-08-17T10:57:31.919Z,99863.47
2022-08-17T11:00:00.983Z,99853.94
2022-08-17T11:02:52.254Z,99860.31
2022-08-17T11:05:47.519Z,99867.47
2022-08-17T11:08:45.027Z,99861.69
2022-08-17T11:11:45.657Z,99868.25
2022-08-17T11:14:27.411Z,99870.19
2022-08-17T11:17:03.073Z,99876.56
2022-08-17T11:20:08.567Z,99879.78
2022-08-17T11:23:07.567Z,99878.13
2022-08-17T11:25:39.679Z,99875.59
2022-08-17T11:28:09.476Z,99875.63
2022-08-17T11:30:51.105Z,99879.34
2022-08-17T11:33:29.854Z,99875.63
2022-08-17T11:36:30.524Z,99886.06
2022-08-17T11:39:16.816Z,99887.22
2022-08-17T11:42:06.047Z,99887.28
2022-08-17T11:44:38.623Z,99896.31
2022-08-17T11:47:29.592Z,99912.09
2022-08-17T11:50:33.480Z,99911.63
2022-08-17T11:53:00.805Z,99902.81
2022-08-17T11:55:40.535Z,99903.66
2022-08-17T11:58:31.065Z,99911.34
2022-08-17T12:01:01.056Z,99909.19
2022-08-17T12:03:33.826Z,99916.56
2022-08-17T12:06:04.088Z,99911.63
2022-08-17T12:08:34.025Z,99910.88
2022-08-17T12:11:08.874Z,99907.22
2022-08-17T12:13:58.304Z,99920.66
2022-08-17T12:16:26.777Z,99918.59
2022-08-17T12:19:02.407Z,99919.25
2022-08-17T12:21:46.349Z,99920.66
2022-08-17T12:24:35.685Z,99927.09
2022-08-17T12:27:07.442Z,99919.63
2022-08-17T12:29:39.142Z,99930.03
2022-08-17T12:32:07.264Z,99913.75
2022-08-17T12:34:41.568Z,99924.03
2022-08-17T12:37:25.655Z,99918.53
2022-08-17T12:40:23.375Z,99916.84
2022-08-17T12:43:01.239Z,99930.91
2022-08-17T12:45:30.356Z,99921.47
2022-08-17T12:48:07.356Z,99921.09
2022-08-17T12:50:37.268Z,99922.00
2022-08-17T12:53:11.474Z,99924.44
2022-08-17T12:55:39.078Z,99925.13
2022-08-17T12:58:14.475Z,99919.75
2022-08-17T13:00:48.967Z,99928.38
2022-08-17T13:03:22.121Z,99928.16
2022-08-17T13:05:56.966Z,99928.63
2022-08-17T13:08:38.469Z,99933.38
2022-08-17T13:11:18.897Z,99928.66
2022-08-17T13:13:56.969Z,99923.31
2022-08-17T13:16:29.084Z,99921.09
2022-08-17T13:19:13.670Z,99923.53
2022-08-17T13:21:51.166Z,99925.16
2022-08-17T13:24:38.120Z,99923.47
2022-08-17T13:27:11.036Z,99921.53
2022-08-17T13:29:53.053Z,99926.59
2022-08-17T13:32:44.158Z,99924.25
2022-08-17T13:35:40.335Z,99914.03
2022-08-17T13:38:34.907Z,99917.91
2022-08-17T13:41:01.841Z,99913.91
2022-08-17T13:43:48.641Z,99905.09
2022-08-17T13:46:24.123Z,99910.28
2022-08-17T13:49:12.041Z,99910.63
2022-08-17T13:51:46.493Z,99901.19
2022-08-17T13:54:23.422Z,99899.22
2022-08-17T13:56:55.926Z,99888.00
2022-08-17T13:59:48.210Z,99897.34
2022-08-17T14:02:20.330Z,99892.84
2022-08-17T14:04:48.616Z,99890.03
2022-08-17T14:07:16.617Z,99902.28
2022-08-17T14:09:54.627Z,99892.59
2022-08-17T14:12:25.117Z,99889.41
2022-08-17T14:14:53.327Z,99883.88
2022-08-17T14:17:20.257Z,99881.38
2022-08-17T14:19:47.077Z,99879.88
2022-08-17T14:22:23.853Z,99875.97
2022-08-17T14:24:51.430Z,99874.91
2022-08-17T14:27:20.569Z,99878.84
2022-08-17T14:29:48.372Z,99877.78
2022-08-17T14:32:21.572Z,99885.53
2022-08-17T14:34:49.779Z,99894.44
2022-08-17T14:37:21.424Z,99884.97
2022-08-17T14:39:48.583Z,99884.84
2022-08-17T14:42:18.290Z,99886.44
2022-08-17T14:44:45.479Z,99890.94
2022-08-17T14:47:16.013Z,99889.19
2022-08-17T14:49:43.803Z,99882.28
2022-08-17T14:52:16.773Z,99894.75
2022-08-17T14:54:45.825Z,99896.25
2022-08-17T14:57:24.771Z,99909.22
2022-08-17T15:00:00.191Z,99909.78
2022-08-17T15:02:30.003Z,99905.03
2022-08-17T15:05:03.578Z,99893.53
2022-08-17T15:07:31.357Z,99909.00
2022-08-17T15:10:01.243Z,99900.44
2022-08-17T15:12:33.257Z,99917.06
2022-08-17T15:15:01.705Z,99915.69
2022-08-17T15:17:43.971Z,99920.34
2022-08-17T15:20:19.085Z,99910.34
2022-08-17T15:22:49.989Z,99915.41
2022-08-17T15:25:18.142Z,99927.03
2022-08-17T15:27:45.117Z,99913.19
2022-08-17T15:30:12.836Z,99922.81
2022-08-17T15:32:46.841Z,99917.47
2022-08-17T15:35:27.338Z,99905.28
2022-08-17T15:37:57.946Z,99908.91
2022-08-17T15:40:25.330Z,99911.94
2022-08-17T15:42:53.012Z,99916.41
2022-08-17T15:45:24.681Z,99921.63
2022-08-17T15:47:53.788Z,99919.13
2022-08-17T15:50:21.028Z,99921.13
2022-08-17T15:52:55.596Z,99918.34
2022-08-17T15:55:24.283Z,99914.16
2022-08-17T15:57:52.279Z,99911.38
2022-08-17T16:00:20.155Z,99919.06
2022-08-17T16:03:13.739Z,99911.59
2022-08-17T16:05:35.568Z,99914.91
2022-08-17T16:08:02.428Z,99912.91
2022-08-17T16:10:35.103Z,99922.00
2022-08-17T16:13:03.595Z,99930.94
2022-08-17T16:15:31.973Z,99929.81
2022-08-17T16:18:00.256Z,99927.38
2022-08-17T16:20:28.142Z,99929.53
2022-08-17T16:22:55.705Z,99931.22
2022-08-17T16:25:47.184Z,99931.72
2022-08-17T16:28:16.826Z,99935.31
2022-08-17T16:30:44.313Z,99927.81
2022-08-17T16:33:11.792Z,99926.16
2022-08-17T16:35:39.415Z,99928.31
2022-08-17T16:38:07.808Z,99944.38
2022-08-17T16:40:36.410Z,99933.66
2022-08-17T16:43:07.130Z,99934.44
2022-08-17T16:45:40.345Z,99936.69
2022-08-17T16:48:09.028Z,99934.47
2022-08-17T16:50:37.008Z,99940.50
2022-08-17T16:53:10.759Z,99938.47
2022-08-17T16:55:38.769Z,99941.56
2022-08-17T16:58:06.977Z,99942.09
2022-08-17T17:00:34.594Z,99935.38
2022-08-17T17:03:19.726Z,99936.69
2022-08-17T17:06:00.069Z,99932.56
2022-08-17T17:08:33.325Z,99934.88
2022-08-17T17:11:09.684Z,99931.53
2022-08-17T17:13:46.882Z,99939.34
2022-08-17T17:16:45.757Z,99938.78
2022-08-17T17:19:34.955Z,99941.66
2022-08-17T17:22:17.066Z,99941.16
2022-08-17T17:25:16.846Z,99942.78
2022-08-17T17:28:07.575Z,99945.88
2022-08-17T17:30:40.089Z,99936.69
2022-08-17T17:33:14.758Z,99938.06
2022-08-17T17:35:50.473Z,99926.75
2022-08-17T17:38:40.343Z,99937.56
2022-08-17T17:41:17.092Z,99937.56
2022-08-17T17:43:43.960Z,99936.72
2022-08-17T17:46:29.148Z,99935.59
2022-08-17T17:49:00.667Z,99938.06
2022-08-17T17:52:09.910Z,99941.44
2022-08-17T17:54:57.125Z,99954.53
2022-08-17T17:57:55.866Z,99945.91
2022-08-17T18:00:34.620Z,99951.78
2022-08-17T18:03:25.988Z,99958.47
2022-08-17T18:06:34.412Z,99960.72
2022-08-17T18:09:24.334Z,99945.50
2022-08-17T18:12:02.713Z,99949.13
2022-08-17T18:14:49.874Z,99948.09
2022-08-17T18:17:18.149Z,99942.56
2022-08-17T18:19:45.320Z,99956.34
2022-08-17T18:22:18.916Z,99956.88
2022-08-17T18:24:48.909Z,99946.91
2022-08-17T18:27:38.658Z,99951.88
2022-08-17T18:30:17.673Z,99952.22
2022-08-17T18:32:46.727Z,99950.56
2022-08-17T18:35:16.025Z,99951.38
2022-08-17T18:38:12.967Z,99945.03
2022-08-17T18:40:42.902Z,99958.03
2022-08-17T18:43:43.994Z,99953.38
2022-08-17T18:46:36.116Z,99962.47
2022-08-17T18:49:08.594Z,99961.63
2022-08-17T18:51:41.642Z,99969.94
2022-08-17T18:54:18.057Z,99967.75
2022-08-17T18:56:51.091Z,99973.03
2022-08-17T18:59:53.337Z,99971.97
2022-08-17T19:02:37.311Z,99974.19
2022-08-17T19:05:13.463Z,99974.44
2022-08-17T19:07:45.414Z,99970.91
2022-08-17T19:10:24.853Z,99969.22
2022-08-17T19:13:14.111Z,99971.47
2022-08-17T19:16:13.155Z,99972.84
2022-08-17T19:18:58.157Z,99970.94
2022-08-17T19:21:36.669Z,99972.63
2022-08-17T19:24:11.624Z,99970.38
2022-08-17T19:26:55.966Z,99974.28
2022-08-17T19:29:36.955Z,99975.91
2022-08-17T19:32:04.461Z,99978.69
2022-08-17T19:34:34.758Z,99978.69
2022-08-17T19:37:21.662Z,99978.38
2022-08-17T19:40:10.327Z,99982.56
2022-08-17T19:42:47.432Z,99989.47
2022-08-17T19:45:23.253Z,99982.88
2022-08-17T19:48:05.397Z,99984.78
2022-08-17T19:50:54.087Z,99990.63
2022-08-17T19:54:01.479Z,99988.97
2022-08-17T19:57:06.488Z,99982.88
2022-08-17T19:59:53.856Z,99982.91
2022-08-17T20:02:57.570Z,99978.53
2022-08-17T20:05:29.352Z,99976.84
2022-08-17T20:08:11.613Z,99973.81
2022-08-17T20:10:48.000Z,99977.16
2022-08-17T20:13:33.302Z,99976.06
2022-08-17T20:16:01.149Z,99977.75
2022-08-17T20:18:38.011Z,99973.28
2022-08-17T20:21:20.338Z,99975.25
2022-08-17T20:23:56.550Z,99979.41
2022-08-17T20:26:51.254Z,99977.19
2022-08-17T20:29:51.330Z,99972.25
2022-08-17T20:32:26.260Z,99976.09
2022-08-17T20:35:08.238Z,99981.06
2022-08-17T20:37:38.340Z,99972.75
2022-08-17T20:40:05.867Z,99975.78
2022-08-17T20:42:34.061Z,99982.16
2022-08-17T20:45:23.556Z,99986.31
2022-08-17T20:48:21.592Z,99981.06
2022-08-17T20:50:47.101Z,99981.06
2022-08-17T20:53:53.480Z,99983.31
2022-08-17T20:56:41.968Z,99991.59
2022-08-17T20:59:31.538Z,99987.16
2022-08-17T21:02:18.082Z,99980.53
2022-08-17T21:04:55.109Z,99982.22
2022-08-17T21:07:43.610Z,99987.19
2022-08-17T21:10:16.447Z,99993.84
2022-08-17T21:12:48.065Z,99996.34
2022-08-17T21:15:42.424Z,99999.41
2022-08-17T21:18:46.020Z,100000.22
2022-08-17T21:21:24.917Z,99997.47
2022-08-17T21:23:58.805Z,99999.69
2022-08-17T21:26:57.696Z,99994.66
2022-08-17T21:29:32.286Z,99985.53
2022-08-17T21:32:03.703Z,99998.81
2022-08-17T21:34:33.962Z,100005.44
2022-08-17T21:37:19.034Z,100008.47
2022-08-17T21:39:55.089Z,100013.19
2022-08-17T21:42:47.863Z,100018.72
2022-08-17T21:45:23.400Z,100009.34
2022-08-17T21:48:08.022Z,100019.28
2022-08-17T21:50:35.753Z,100009.91
2022-08-17T21:53:04.173Z,100013.75
2022-08-17T21:55:32.891Z,100008.81
2022-08-17T21:58:13.782Z,100006.88
2022-08-17T22:00:44.639Z,100016.84
2022-08-17T22:03:28.818Z,100011.84
2022-08-17T22:05:56.699Z,100020.44
2022-08-17T22:08:25.200Z,100025.44
2022-08-17T22:11:01.247Z,100029.03
2022-08-17T22:13:29.763Z,100023.19
2022-08-17T22:16:29.084Z,100032.91
2022-08-17T22:18:58.896Z,100026.78
2022-08-17T22:21:25.854Z,100027.91
2022-08-17T22:24:05.839Z,100023.75
2022-08-17T22:27:07.510Z,100025.97
2022-08-17T22:29:56.845Z,100029.28
2022-08-17T22:32:42.937Z,100037.34
2022-08-17T22:35:17.810Z,100028.75
2022-08-17T22:37:45.465Z,100023.50
2022-08-17T22:40:41.966Z,100016.88
2022-08-17T22:43:13.323Z,100020.75
2022-08-17T22:45:51.519Z,100019.34
2022-08-17T22:48:22.437Z,100008.56
2022-08-17T22:51:12.836Z,100013.53
2022-08-17T22:54:36.361Z,100018.81
2022-08-17T22:57:23.642Z,100022.41
2022-08-17T22:59:51.929Z,100020.19
2022-08-17T23:02:26.535Z,100027.09
2022-08-17T23:05:13.105Z,100029.63
2022-08-17T23:07:40.731Z,100024.31
2022-08-17T23:10:11.528Z,100018.25
2022-08-17T23:12:39.994Z,100022.13
2022-08-17T23:15:14.456Z,100021.56
2022-08-17T23:17:42.140Z,100019.09
2022-08-17T23:20:13.086Z,100017.16
2022-08-17T23:22:51.822Z,100022.69
2022-08-17T23:25:28.512Z,100021.03
2022-08-17T23:27:57.697Z,100013.56
2022-08-17T23:30:25.748Z,100013.00
2022-08-17T23:32:56.651Z,100008.03
2022-08-17T23:35:39.298Z,100009.16
2022-08-17T23:38:12.703Z,100006.38
2022-08-17T23:40:40.582Z,99998.94
2022-08-17T23:43:24.084Z,99999.50
2022-08-17T23:45:54.210Z,99992.06
2022-08-17T23:48:28.456Z,99991.25
2022-08-17T23:51:05.986Z,99993.44
2022-08-17T23:53:36.348Z,99993.44
2022-08-17T23:56:09.407Z,99985.72
2022-08-17T23:58:38.770Z,99984.59
